New Smyrna, Florida
Current Conditions -  °F | °C
As of 5:53 PM on Saturday 22 Nov 2014 (Local Time) from KDAB Reporting Station
Overcast Overcast  
Wind Chill: 71°   Ceiling: 3000
Heat Index: 71°   Visibility: 9mi
Dew Point: 64°   Wind: 9mph
Humidity: 78%   Direction: 90°E
Pressure: 30.18"   Gusts: NA
Location:  28.9963°N, 80.8761°W
Report Text: KDAB 222253Z 09008KT 9SM BKN030 OVC035 22/18 A3018 RMK AO2 RAB15E25 SLP220 P0000 T02170178
Loading
Personal Weather Stations






























Interactive Weather Map New forecast layout! Learn more

10-Day Weather Forecast

Advertisements
Track Severe Weather on mobile